Lilydale, Minnesota
Current Conditions -  °F | °C
As of 12:53 PM on Saturday 20 Dec 2014 (Local Time) from KSTP Reporting Station
Overcast Overcast  
Wind Chill: 23°   Ceiling: 1200
Heat Index: 32°   Visibility: 7mi
Dew Point: 28°   Wind: 12mph
Humidity: 85%   Direction: 180°S
Pressure: 30.15"   Gusts: NA
Location:  44.8976°N, 93.103°W
Report Text: KSTP 201853Z 18010KT 7SM OVC012 00/M02 A3015 RMK AO2 SLP215 T00001022
Loading
Personal Weather Stations






























Interactive Weather Map New forecast layout! Learn more

10-Day Weather Forecast

Advertisements
Track Severe Weather on mobile